ePrivacy and GPDR Cookie Consent by Cookie Consent
EmailTwitter


Observations de surface / France / LFBD (07510)

Régions: Québec | Canada | États-Unis | Europe | France | UK | Ailleurs
Station
Affichage
Infos & localisation pour LFBD (07510) | Aide pour décoder les METARs

Observations prises le 2023-01-28 à 10H30 UTC à BORDEAUX/MERIGNA, FR (LFBD)

Etat du ciel: couvert.

Température: 4.0 Celsius

Point de rosée: 1.0 Celsius

Humidité relative: 81%

Facteur vent 1.

Vents: Nord à 13 km/h ou 7 noeuds.

Pression au niveau moyen de la mer: 102.70 kilopascals.

Visibilité horizontale: 6.21 milles terrestres ou 9.94 kilomètres.

Hauteur du plafond: 1189 mètres ( 3900 pieds ).

Observation METAR:

LFBD 281030Z AUTO 01007KT 9999 FEW017 OVC039 04/01 Q1027 NOSIG=